sensor_id;sensor_type;location;lat;lon;timestamp;P1;durP1;ratioP1;P2;durP2;ratioP2
71836;SDS011;59686;51.716;7.016;2023-04-25T00:02:23;8.33;;;4.13;;
71836;SDS011;59686;51.716;7.016;2023-04-25T00:04:49;9.60;;;3.77;;
71836;SDS011;59686;51.716;7.016;2023-04-25T00:07:15;11.37;;;4.77;;
71836;SDS011;59686;51.716;7.016;2023-04-25T00:09:41;9.63;;;4.57;;
71836;SDS011;59686;51.716;7.016;2023-04-25T00:12:07;8.07;;;4.47;;
71836;SDS011;59686;51.716;7.016;2023-04-25T00:14:33;7.03;;;4.13;;
71836;SDS011;59686;51.716;7.016;2023-04-25T00:17:00;9.17;;;4.23;;
71836;SDS011;59686;51.716;7.016;2023-04-25T00:19:27;8.70;;;4.40;;
71836;SDS011;59686;51.716;7.016;2023-04-25T00:21:54;8.10;;;3.80;;
71836;SDS011;59686;51.716;7.016;2023-04-25T00:24:20;6.00;;;3.50;;
71836;SDS011;59686;51.716;7.016;2023-04-25T00:26:46;8.53;;;4.30;;
71836;SDS011;59686;51.716;7.016;2023-04-25T00:29:12;5.83;;;3.80;;
71836;SDS011;59686;51.716;7.016;2023-04-25T00:31:39;9.33;;;4.20;;
71836;SDS011;59686;51.716;7.016;2023-04-25T00:34:05;6.27;;;3.87;;
71836;SDS011;59686;51.716;7.016;2023-04-25T00:36:32;7.33;;;4.13;;
71836;SDS011;59686;51.716;7.016;2023-04-25T00:38:57;7.87;;;3.90;;
71836;SDS011;59686;51.716;7.016;2023-04-25T00:41:23;7.60;;;4.00;;
71836;SDS011;59686;51.716;7.016;2023-04-25T00:43:53;7.83;;;3.83;;
71836;SDS011;59686;51.716;7.016;2023-04-25T00:46:20;7.67;;;3.97;;
71836;SDS011;59686;51.716;7.016;2023-04-25T00:48:46;6.47;;;3.50;;
71836;SDS011;59686;51.716;7.016;2023-04-25T00:51:13;8.60;;;3.70;;
71836;SDS011;59686;51.716;7.016;2023-04-25T00:53:41;10.33;;;4.37;;
71836;SDS011;59686;51.716;7.016;2023-04-25T00:56:07;9.43;;;3.60;;
71836;SDS011;59686;51.716;7.016;2023-04-25T00:58:38;7.30;;;3.63;;
71836;SDS011;59686;51.716;7.016;2023-04-25T01:01:05;8.57;;;3.80;;
71836;SDS011;59686;51.716;7.016;2023-04-25T01:03:32;6.23;;;3.37;;
71836;SDS011;59686;51.716;7.016;2023-04-25T01:06:01;6.97;;;3.40;;
71836;SDS011;59686;51.716;7.016;2023-04-25T01:08:40;7.20;;;3.30;;
71836;SDS011;59686;51.716;7.016;2023-04-25T01:11:05;7.20;;;3.30;;
71836;SDS011;59686;51.716;7.016;2023-04-25T01:13:31;7.07;;;3.20;;
71836;SDS011;59686;51.716;7.016;2023-04-25T01:15:58;7.23;;;3.40;;
71836;SDS011;59686;51.716;7.016;2023-04-25T01:18:25;4.97;;;3.30;;
71836;SDS011;59686;51.716;7.016;2023-04-25T01:20:51;7.93;;;3.20;;
71836;SDS011;59686;51.716;7.016;2023-04-25T01:23:24;7.80;;;3.53;;
71836;SDS011;59686;51.716;7.016;2023-04-25T01:25:50;6.20;;;3.20;;
71836;SDS011;59686;51.716;7.016;2023-04-25T01:28:16;8.90;;;3.43;;
71836;SDS011;59686;51.716;7.016;2023-04-25T01:30:42;6.67;;;3.43;;
71836;SDS011;59686;51.716;7.016;2023-04-25T01:33:09;4.70;;;2.60;;
71836;SDS011;59686;51.716;7.016;2023-04-25T01:35:35;6.37;;;2.83;;
71836;SDS011;59686;51.716;7.016;2023-04-25T01:38:00;6.93;;;3.13;;
71836;SDS011;59686;51.716;7.016;2023-04-25T01:40:26;7.43;;;3.10;;
71836;SDS011;59686;51.716;7.016;2023-04-25T01:42:53;5.83;;;2.80;;
71836;SDS011;59686;51.716;7.016;2023-04-25T01:45:19;5.70;;;2.90;;
71836;SDS011;59686;51.716;7.016;2023-04-25T01:47:45;7.80;;;2.80;;
71836;SDS011;59686;51.716;7.016;2023-04-25T01:50:14;3.40;;;2.47;;
71836;SDS011;59686;51.716;7.016;2023-04-25T01:52:41;7.17;;;2.70;;
71836;SDS011;59686;51.716;7.016;2023-04-25T01:55:07;4.77;;;2.60;;
71836;SDS011;59686;51.716;7.016;2023-04-25T01:57:33;6.07;;;2.87;;
71836;SDS011;59686;51.716;7.016;2023-04-25T02:00:00;6.80;;;2.80;;
71836;SDS011;59686;51.716;7.016;2023-04-25T02:02:28;5.07;;;2.70;;
71836;SDS011;59686;51.716;7.016;2023-04-25T02:04:53;8.63;;;2.90;;
71836;SDS011;59686;51.716;7.016;2023-04-25T02:07:19;6.57;;;3.07;;
71836;SDS011;59686;51.716;7.016;2023-04-25T02:12:14;5.23;;;2.43;;
71836;SDS011;59686;51.716;7.016;2023-04-25T02:14:40;5.33;;;2.67;;
71836;SDS011;59686;51.716;7.016;2023-04-25T02:17:05;7.50;;;2.70;;
71836;SDS011;59686;51.716;7.016;2023-04-25T02:19:31;7.83;;;2.90;;
71836;SDS011;59686;51.716;7.016;2023-04-25T02:21:57;6.00;;;2.40;;
71836;SDS011;59686;51.716;7.016;2023-04-25T02:24:23;4.37;;;2.57;;
71836;SDS011;59686;51.716;7.016;2023-04-25T02:26:49;5.77;;;2.80;;
71836;SDS011;59686;51.716;7.016;2023-04-25T02:29:15;6.37;;;2.97;;
71836;SDS011;59686;51.716;7.016;2023-04-25T02:31:40;6.90;;;2.87;;
71836;SDS011;59686;51.716;7.016;2023-04-25T02:34:06;6.00;;;2.73;;
71836;SDS011;59686;51.716;7.016;2023-04-25T02:36:32;5.13;;;2.40;;
71836;SDS011;59686;51.716;7.016;2023-04-25T02:38:59;5.50;;;3.00;;
71836;SDS011;59686;51.716;7.016;2023-04-25T02:41:26;6.03;;;2.50;;
71836;SDS011;59686;51.716;7.016;2023-04-25T02:43:52;4.77;;;2.77;;
71836;SDS011;59686;51.716;7.016;2023-04-25T02:46:18;5.80;;;2.67;;
71836;SDS011;59686;51.716;7.016;2023-04-25T02:48:43;6.17;;;2.80;;
71836;SDS011;59686;51.716;7.016;2023-04-25T02:51:09;7.73;;;3.30;;
71836;SDS011;59686;51.716;7.016;2023-04-25T02:53:35;4.83;;;2.73;;
71836;SDS011;59686;51.716;7.016;2023-04-25T02:56:01;6.07;;;2.83;;
71836;SDS011;59686;51.716;7.016;2023-04-25T02:58:26;4.60;;;2.97;;
71836;SDS011;59686;51.716;7.016;2023-04-25T03:00:52;4.97;;;2.80;;
71836;SDS011;59686;51.716;7.016;2023-04-25T03:03:18;5.87;;;3.00;;
71836;SDS011;59686;51.716;7.016;2023-04-25T03:05:46;5.87;;;2.90;;
71836;SDS011;59686;51.716;7.016;2023-04-25T03:08:19;4.90;;;2.97;;
71836;SDS011;59686;51.716;7.016;2023-04-25T03:10:45;6.47;;;2.93;;
71836;SDS011;59686;51.716;7.016;2023-04-25T03:13:11;6.77;;;3.03;;
71836;SDS011;59686;51.716;7.016;2023-04-25T03:15:37;6.13;;;3.00;;
71836;SDS011;59686;51.716;7.016;2023-04-25T03:18:03;6.30;;;2.90;;
71836;SDS011;59686;51.716;7.016;2023-04-25T03:20:29;5.70;;;2.50;;
71836;SDS011;59686;51.716;7.016;2023-04-25T03:22:56;5.10;;;3.00;;
71836;SDS011;59686;51.716;7.016;2023-04-25T03:25:22;7.40;;;2.90;;
71836;SDS011;59686;51.716;7.016;2023-04-25T03:27:49;7.77;;;2.80;;
71836;SDS011;59686;51.716;7.016;2023-04-25T03:30:15;8.93;;;2.90;;
71836;SDS011;59686;51.716;7.016;2023-04-25T03:32:40;7.73;;;2.97;;
71836;SDS011;59686;51.716;7.016;2023-04-25T03:35:06;7.00;;;3.30;;
71836;SDS011;59686;51.716;7.016;2023-04-25T03:37:32;5.03;;;2.70;;
71836;SDS011;59686;51.716;7.016;2023-04-25T03:39:58;5.17;;;2.37;;
71836;SDS011;59686;51.716;7.016;2023-04-25T03:42:23;8.33;;;2.63;;
71836;SDS011;59686;51.716;7.016;2023-04-25T03:44:49;6.50;;;2.43;;
71836;SDS011;59686;51.716;7.016;2023-04-25T03:47:16;6.57;;;2.77;;
71836;SDS011;59686;51.716;7.016;2023-04-25T03:49:42;4.00;;;2.10;;
71836;SDS011;59686;51.716;7.016;2023-04-25T03:52:07;4.77;;;2.27;;
71836;SDS011;59686;51.716;7.016;2023-04-25T03:54:33;4.60;;;2.20;;
71836;SDS011;59686;51.716;7.016;2023-04-25T03:56:59;5.97;;;2.13;;
71836;SDS011;59686;51.716;7.016;2023-04-25T03:59:24;5.40;;;2.67;;
71836;SDS011;59686;51.716;7.016;2023-04-25T04:01:51;7.43;;;2.60;;
71836;SDS011;59686;51.716;7.016;2023-04-25T04:04:17;3.63;;;1.93;;
71836;SDS011;59686;51.716;7.016;2023-04-25T04:06:43;6.33;;;2.50;;
71836;SDS011;59686;51.716;7.016;2023-04-25T04:09:09;5.17;;;2.03;;
71836;SDS011;59686;51.716;7.016;2023-04-25T04:11:36;3.80;;;2.00;;
71836;SDS011;59686;51.716;7.016;2023-04-25T04:14:04;6.43;;;2.40;;
71836;SDS011;59686;51.716;7.016;2023-04-25T04:16:30;4.87;;;2.17;;
71836;SDS011;59686;51.716;7.016;2023-04-25T04:18:57;6.33;;;2.30;;
71836;SDS011;59686;51.716;7.016;2023-04-25T04:21:23;5.53;;;2.27;;
71836;SDS011;59686;51.716;7.016;2023-04-25T04:23:48;4.90;;;2.00;;
71836;SDS011;59686;51.716;7.016;2023-04-25T04:26:14;6.90;;;2.57;;
71836;SDS011;59686;51.716;7.016;2023-04-25T04:28:43;5.50;;;2.33;;
71836;SDS011;59686;51.716;7.016;2023-04-25T04:31:09;6.03;;;2.17;;
71836;SDS011;59686;51.716;7.016;2023-04-25T04:33:36;5.70;;;2.20;;
71836;SDS011;59686;51.716;7.016;2023-04-25T04:36:03;6.60;;;2.10;;
71836;SDS011;59686;51.716;7.016;2023-04-25T04:38:29;3.87;;;2.17;;
71836;SDS011;59686;51.716;7.016;2023-04-25T04:40:55;6.00;;;2.30;;
71836;SDS011;59686;51.716;7.016;2023-04-25T04:43:21;6.60;;;2.80;;
71836;SDS011;59686;51.716;7.016;2023-04-25T04:45:48;6.00;;;2.60;;
71836;SDS011;59686;51.716;7.016;2023-04-25T04:48:14;5.77;;;2.50;;
71836;SDS011;59686;51.716;7.016;2023-04-25T04:50:39;9.63;;;2.60;;
71836;SDS011;59686;51.716;7.016;2023-04-25T04:53:06;6.30;;;2.67;;
71836;SDS011;59686;51.716;7.016;2023-04-25T04:55:50;6.33;;;2.17;;
71836;SDS011;59686;51.716;7.016;2023-04-25T04:58:16;4.77;;;2.30;;
71836;SDS011;59686;51.716;7.016;2023-04-25T05:00:41;2.93;;;2.13;;
71836;SDS011;59686;51.716;7.016;2023-04-25T05:03:07;6.23;;;2.47;;
71836;SDS011;59686;51.716;7.016;2023-04-25T05:05:33;5.80;;;2.30;;
71836;SDS011;59686;51.716;7.016;2023-04-25T05:07:58;5.50;;;2.43;;
71836;SDS011;59686;51.716;7.016;2023-04-25T05:10:25;5.20;;;2.50;;
71836;SDS011;59686;51.716;7.016;2023-04-25T05:12:51;6.70;;;2.43;;
71836;SDS011;59686;51.716;7.016;2023-04-25T05:15:16;7.13;;;2.63;;
71836;SDS011;59686;51.716;7.016;2023-04-25T05:17:42;5.47;;;2.30;;
71836;SDS011;59686;51.716;7.016;2023-04-25T05:20:08;7.17;;;2.90;;
71836;SDS011;59686;51.716;7.016;2023-04-25T05:22:34;3.60;;;2.17;;
71836;SDS011;59686;51.716;7.016;2023-04-25T05:25:00;8.03;;;2.70;;
71836;SDS011;59686;51.716;7.016;2023-04-25T05:27:26;5.83;;;2.67;;
71836;SDS011;59686;51.716;7.016;2023-04-25T05:29:52;5.83;;;2.57;;
71836;SDS011;59686;51.716;7.016;2023-04-25T05:32:17;6.67;;;2.90;;
71836;SDS011;59686;51.716;7.016;2023-04-25T05:34:43;5.27;;;2.90;;
71836;SDS011;59686;51.716;7.016;2023-04-25T05:37:09;8.57;;;3.17;;
71836;SDS011;59686;51.716;7.016;2023-04-25T05:39:35;7.93;;;3.13;;
71836;SDS011;59686;51.716;7.016;2023-04-25T05:42:00;5.50;;;3.20;;
71836;SDS011;59686;51.716;7.016;2023-04-25T05:44:26;6.70;;;3.03;;
71836;SDS011;59686;51.716;7.016;2023-04-25T05:46:53;7.73;;;3.93;;
71836;SDS011;59686;51.716;7.016;2023-04-25T05:49:18;6.70;;;3.33;;
71836;SDS011;59686;51.716;7.016;2023-04-25T05:51:56;5.60;;;2.93;;
71836;SDS011;59686;51.716;7.016;2023-04-25T05:54:21;7.77;;;3.40;;
71836;SDS011;59686;51.716;7.016;2023-04-25T05:56:47;5.40;;;3.10;;
71836;SDS011;59686;51.716;7.016;2023-04-25T05:59:12;8.37;;;3.63;;
71836;SDS011;59686;51.716;7.016;2023-04-25T06:01:38;7.33;;;3.00;;
71836;SDS011;59686;51.716;7.016;2023-04-25T06:04:06;6.83;;;3.27;;
71836;SDS011;59686;51.716;7.016;2023-04-25T06:06:31;6.80;;;3.83;;
71836;SDS011;59686;51.716;7.016;2023-04-25T06:08:57;14.13;;;3.93;;
71836;SDS011;59686;51.716;7.016;2023-04-25T06:11:23;12.17;;;3.97;;
71836;SDS011;59686;51.716;7.016;2023-04-25T06:13:49;8.83;;;3.57;;
71836;SDS011;59686;51.716;7.016;2023-04-25T06:16:14;6.77;;;3.57;;
71836;SDS011;59686;51.716;7.016;2023-04-25T06:18:40;5.97;;;3.30;;
71836;SDS011;59686;51.716;7.016;2023-04-25T06:21:06;9.30;;;3.57;;
71836;SDS011;59686;51.716;7.016;2023-04-25T06:23:31;9.23;;;3.57;;
71836;SDS011;59686;51.716;7.016;2023-04-25T06:25:57;8.07;;;3.40;;
71836;SDS011;59686;51.716;7.016;2023-04-25T06:28:23;9.27;;;3.97;;
71836;SDS011;59686;51.716;7.016;2023-04-25T06:30:49;11.07;;;3.70;;
71836;SDS011;59686;51.716;7.016;2023-04-25T06:33:15;10.07;;;3.60;;
71836;SDS011;59686;51.716;7.016;2023-04-25T06:35:41;8.87;;;3.60;;
71836;SDS011;59686;51.716;7.016;2023-04-25T06:38:08;7.73;;;3.50;;
71836;SDS011;59686;51.716;7.016;2023-04-25T06:40:33;7.77;;;3.40;;
71836;SDS011;59686;51.716;7.016;2023-04-25T06:42:59;7.10;;;3.43;;
71836;SDS011;59686;51.716;7.016;2023-04-25T06:45:25;6.73;;;3.47;;
71836;SDS011;59686;51.716;7.016;2023-04-25T06:47:51;7.07;;;3.13;;
71836;SDS011;59686;51.716;7.016;2023-04-25T06:50:17;7.60;;;3.30;;
71836;SDS011;59686;51.716;7.016;2023-04-25T06:52:43;6.40;;;3.10;;
71836;SDS011;59686;51.716;7.016;2023-04-25T06:55:08;8.03;;;3.47;;
71836;SDS011;59686;51.716;7.016;2023-04-25T06:57:34;9.37;;;3.10;;
71836;SDS011;59686;51.716;7.016;2023-04-25T07:00:04;12.70;;;3.43;;
71836;SDS011;59686;51.716;7.016;2023-04-25T07:02:33;6.70;;;3.00;;
71836;SDS011;59686;51.716;7.016;2023-04-25T07:04:59;7.13;;;3.27;;
71836;SDS011;59686;51.716;7.016;2023-04-25T07:07:26;11.80;;;3.63;;
71836;SDS011;59686;51.716;7.016;2023-04-25T07:09:52;9.23;;;2.80;;
71836;SDS011;59686;51.716;7.016;2023-04-25T07:12:18;6.70;;;3.13;;
71836;SDS011;59686;51.716;7.016;2023-04-25T13:47:17;2.13;;;1.40;;
71836;SDS011;59686;51.716;7.016;2023-04-25T13:49:42;3.47;;;1.50;;
71836;SDS011;59686;51.716;7.016;2023-04-25T13:52:08;1.40;;;1.03;;
71836;SDS011;59686;51.716;7.016;2023-04-25T13:54:34;2.60;;;0.97;;
71836;SDS011;59686;51.716;7.016;2023-04-25T13:56:59;2.00;;;1.00;;
71836;SDS011;59686;51.716;7.016;2023-04-25T13:59:26;1.77;;;0.90;;
71836;SDS011;59686;51.716;7.016;2023-04-25T14:01:52;3.17;;;1.37;;
71836;SDS011;59686;51.716;7.016;2023-04-25T14:04:18;6.17;;;1.20;;
71836;SDS011;59686;51.716;7.016;2023-04-25T14:06:47;2.37;;;1.33;;
71836;SDS011;59686;51.716;7.016;2023-04-25T14:09:13;2.73;;;1.10;;
71836;SDS011;59686;51.716;7.016;2023-04-25T14:11:40;2.50;;;1.33;;
71836;SDS011;59686;51.716;7.016;2023-04-25T14:14:06;2.33;;;1.20;;
71836;SDS011;59686;51.716;7.016;2023-04-25T14:16:31;2.23;;;1.10;;
71836;SDS011;59686;51.716;7.016;2023-04-25T14:18:57;2.33;;;1.20;;
71836;SDS011;59686;51.716;7.016;2023-04-25T14:21:23;3.80;;;1.17;;
71836;SDS011;59686;51.716;7.016;2023-04-25T14:23:49;3.77;;;1.60;;
71836;SDS011;59686;51.716;7.016;2023-04-25T14:26:15;2.10;;;1.20;;
71836;SDS011;59686;51.716;7.016;2023-04-25T14:28:41;3.33;;;1.30;;
71836;SDS011;59686;51.716;7.016;2023-04-25T14:31:17;3.07;;;1.30;;
71836;SDS011;59686;51.716;7.016;2023-04-25T14:33:43;4.57;;;1.20;;
71836;SDS011;59686;51.716;7.016;2023-04-25T14:36:09;3.37;;;1.20;;
71836;SDS011;59686;51.716;7.016;2023-04-25T14:38:36;1.90;;;1.20;;
71836;SDS011;59686;51.716;7.016;2023-04-25T14:41:01;7.67;;;1.50;;
71836;SDS011;59686;51.716;7.016;2023-04-25T14:43:28;4.07;;;1.40;;
71836;SDS011;59686;51.716;7.016;2023-04-25T14:45:54;3.70;;;1.10;;
71836;SDS011;59686;51.716;7.016;2023-04-25T14:48:20;2.97;;;1.40;;
71836;SDS011;59686;51.716;7.016;2023-04-25T14:50:46;4.07;;;1.40;;
71836;SDS011;59686;51.716;7.016;2023-04-25T14:53:12;6.50;;;1.50;;
71836;SDS011;59686;51.716;7.016;2023-04-25T14:55:38;1.87;;;1.30;;
71836;SDS011;59686;51.716;7.016;2023-04-25T14:58:03;4.57;;;1.90;;
71836;SDS011;59686;51.716;7.016;2023-04-25T15:00:30;2.37;;;1.57;;
71836;SDS011;59686;51.716;7.016;2023-04-25T15:02:56;4.73;;;1.80;;
71836;SDS011;59686;51.716;7.016;2023-04-25T15:08:08;3.10;;;1.80;;
71836;SDS011;59686;51.716;7.016;2023-04-25T15:10:33;9.13;;;2.10;;
71836;SDS011;59686;51.716;7.016;2023-04-25T15:12:59;3.83;;;1.58;;
71836;SDS011;59686;51.716;7.016;2023-04-25T15:15:26;3.30;;;1.70;;
71836;SDS011;59686;51.716;7.016;2023-04-25T15:17:52;3.23;;;1.50;;
71836;SDS011;59686;51.716;7.016;2023-04-25T15:20:20;4.73;;;1.60;;
71836;SDS011;59686;51.716;7.016;2023-04-25T15:22:46;4.83;;;1.70;;
71836;SDS011;59686;51.716;7.016;2023-04-25T15:25:14;3.90;;;1.50;;
71836;SDS011;59686;51.716;7.016;2023-04-25T15:27:42;2.13;;;1.23;;
71836;SDS011;59686;51.716;7.016;2023-04-25T15:30:10;4.73;;;1.83;;
71836;SDS011;59686;51.716;7.016;2023-04-25T15:32:49;2.78;;;1.23;;
71836;SDS011;59686;51.716;7.016;2023-04-25T15:35:15;2.78;;;1.58;;
71836;SDS011;59686;51.716;7.016;2023-04-25T15:37:41;5.23;;;1.53;;
71836;SDS011;59686;51.716;7.016;2023-04-25T15:40:08;3.03;;;1.48;;
71836;SDS011;59686;51.716;7.016;2023-04-25T15:42:41;5.43;;;1.40;;
71836;SDS011;59686;51.716;7.016;2023-04-25T15:45:09;2.87;;;1.50;;
71836;SDS011;59686;51.716;7.016;2023-04-25T15:47:36;3.93;;;1.60;;
71836;SDS011;59686;51.716;7.016;2023-04-25T15:50:06;6.80;;;2.07;;
71836;SDS011;59686;51.716;7.016;2023-04-25T15:52:33;2.33;;;1.40;;
71836;SDS011;59686;51.716;7.016;2023-04-25T15:55:00;3.08;;;1.42;;
71836;SDS011;59686;51.716;7.016;2023-04-25T15:57:26;3.20;;;1.40;;
71836;SDS011;59686;51.716;7.016;2023-04-25T15:59:59;3.70;;;1.60;;
71836;SDS011;59686;51.716;7.016;2023-04-25T16:02:27;6.05;;;1.73;;
71836;SDS011;59686;51.716;7.016;2023-04-25T16:04:54;3.47;;;1.63;;
71836;SDS011;59686;51.716;7.016;2023-04-25T16:07:20;4.75;;;1.30;;
71836;SDS011;59686;51.716;7.016;2023-04-25T16:09:50;3.03;;;1.15;;
71836;SDS011;59686;51.716;7.016;2023-04-25T16:12:16;4.73;;;1.40;;
71836;SDS011;59686;51.716;7.016;2023-04-25T16:14:42;3.20;;;1.23;;
71836;SDS011;59686;51.716;7.016;2023-04-25T16:17:08;4.50;;;1.30;;
71836;SDS011;59686;51.716;7.016;2023-04-25T16:19:34;2.47;;;1.10;;
71836;SDS011;59686;51.716;7.016;2023-04-25T16:22:00;2.97;;;1.30;;
71836;SDS011;59686;51.716;7.016;2023-04-25T16:24:26;4.03;;;1.20;;
71836;SDS011;59686;51.716;7.016;2023-04-25T16:26:51;3.78;;;1.27;;
71836;SDS011;59686;51.716;7.016;2023-04-25T16:29:17;3.27;;;1.27;;
71836;SDS011;59686;51.716;7.016;2023-04-25T16:31:43;4.13;;;1.42;;
71836;SDS011;59686;51.716;7.016;2023-04-25T16:34:11;3.53;;;1.25;;
71836;SDS011;59686;51.716;7.016;2023-04-25T16:36:38;4.07;;;1.40;;
71836;SDS011;59686;51.716;7.016;2023-04-25T16:39:05;2.28;;;1.33;;
71836;SDS011;59686;51.716;7.016;2023-04-25T16:41:32;1.60;;;1.30;;
71836;SDS011;59686;51.716;7.016;2023-04-25T16:43:58;5.03;;;1.50;;
71836;SDS011;59686;51.716;7.016;2023-04-25T16:46:24;2.38;;;1.33;;
71836;SDS011;59686;51.716;7.016;2023-04-25T16:48:51;4.50;;;1.30;;
71836;SDS011;59686;51.716;7.016;2023-04-25T16:51:16;4.22;;;1.40;;
71836;SDS011;59686;51.716;7.016;2023-04-25T16:53:43;2.88;;;1.63;;
71836;SDS011;59686;51.716;7.016;2023-04-25T16:56:10;2.42;;;1.25;;
71836;SDS011;59686;51.716;7.016;2023-04-25T16:58:36;2.08;;;1.10;;
71836;SDS011;59686;51.716;7.016;2023-04-25T17:01:02;2.35;;;1.30;;
71836;SDS011;59686;51.716;7.016;2023-04-25T17:03:35;5.05;;;1.58;;
71836;SDS011;59686;51.716;7.016;2023-04-25T17:06:01;1.63;;;1.15;;
71836;SDS011;59686;51.716;7.016;2023-04-25T17:08:27;3.53;;;1.30;;
71836;SDS011;59686;51.716;7.016;2023-04-25T17:10:53;2.08;;;1.30;;
71836;SDS011;59686;51.716;7.016;2023-04-25T17:13:19;2.47;;;1.10;;
71836;SDS011;59686;51.716;7.016;2023-04-25T17:15:45;3.17;;;1.48;;
71836;SDS011;59686;51.716;7.016;2023-04-25T17:18:11;2.83;;;1.50;;
71836;SDS011;59686;51.716;7.016;2023-04-25T17:20:37;3.65;;;1.38;;
71836;SDS011;59686;51.716;7.016;2023-04-25T17:23:02;2.92;;;1.63;;
71836;SDS011;59686;51.716;7.016;2023-04-25T17:25:28;4.78;;;1.40;;
71836;SDS011;59686;51.716;7.016;2023-04-25T17:27:54;3.08;;;1.38;;
71836;SDS011;59686;51.716;7.016;2023-04-25T17:30:20;4.90;;;1.30;;
71836;SDS011;59686;51.716;7.016;2023-04-25T17:32:46;6.40;;;1.63;;
71836;SDS011;59686;51.716;7.016;2023-04-25T17:35:12;3.92;;;1.55;;
71836;SDS011;59686;51.716;7.016;2023-04-25T17:37:39;2.43;;;1.23;;
71836;SDS011;59686;51.716;7.016;2023-04-25T17:40:06;4.47;;;1.42;;
71836;SDS011;59686;51.716;7.016;2023-04-25T17:42:36;5.78;;;1.48;;
71836;SDS011;59686;51.716;7.016;2023-04-25T17:45:03;3.63;;;1.50;;
71836;SDS011;59686;51.716;7.016;2023-04-25T17:47:29;4.28;;;1.55;;
71836;SDS011;59686;51.716;7.016;2023-04-25T17:49:56;3.63;;;1.40;;
71836;SDS011;59686;51.716;7.016;2023-04-25T17:52:22;3.85;;;1.58;;
71836;SDS011;59686;51.716;7.016;2023-04-25T17:54:48;5.53;;;1.80;;
71836;SDS011;59686;51.716;7.016;2023-04-25T17:57:14;3.30;;;1.52;;
71836;SDS011;59686;51.716;7.016;2023-04-25T17:59:40;3.00;;;1.38;;
71836;SDS011;59686;51.716;7.016;2023-04-25T18:02:06;3.65;;;1.58;;
71836;SDS011;59686;51.716;7.016;2023-04-25T18:04:32;3.95;;;1.58;;
71836;SDS011;59686;51.716;7.016;2023-04-25T18:06:59;4.78;;;1.50;;
71836;SDS011;59686;51.716;7.016;2023-04-25T18:09:25;4.85;;;1.65;;
71836;SDS011;59686;51.716;7.016;2023-04-25T18:11:52;3.85;;;1.50;;
71836;SDS011;59686;51.716;7.016;2023-04-25T18:14:18;4.95;;;1.55;;
71836;SDS011;59686;51.716;7.016;2023-04-25T18:16:46;2.85;;;1.40;;
71836;SDS011;59686;51.716;7.016;2023-04-25T18:19:13;3.78;;;1.33;;
71836;SDS011;59686;51.716;7.016;2023-04-25T18:21:54;2.88;;;1.20;;
71836;SDS011;59686;51.716;7.016;2023-04-25T18:24:23;2.80;;;1.30;;
71836;SDS011;59686;51.716;7.016;2023-04-25T18:26:51;3.40;;;1.70;;
71836;SDS011;59686;51.716;7.016;2023-04-25T18:29:20;4.78;;;1.63;;
71836;SDS011;59686;51.716;7.016;2023-04-25T18:31:46;2.40;;;1.23;;
71836;SDS011;59686;51.716;7.016;2023-04-25T18:34:14;4.68;;;1.25;;
71836;SDS011;59686;51.716;7.016;2023-04-25T18:36:43;3.58;;;1.45;;
71836;SDS011;59686;51.716;7.016;2023-04-25T18:39:08;2.47;;;1.25;;
71836;SDS011;59686;51.716;7.016;2023-04-25T18:41:35;4.07;;;1.40;;
71836;SDS011;59686;51.716;7.016;2023-04-25T18:44:01;4.00;;;1.65;;
71836;SDS011;59686;51.716;7.016;2023-04-25T18:46:30;6.22;;;1.45;;
71836;SDS011;59686;51.716;7.016;2023-04-25T18:48:56;3.10;;;1.70;;
71836;SDS011;59686;51.716;7.016;2023-04-25T18:51:22;2.42;;;1.30;;
71836;SDS011;59686;51.716;7.016;2023-04-25T18:56:23;4.00;;;1.50;;
71836;SDS011;59686;51.716;7.016;2023-04-25T18:58:50;2.58;;;1.50;;
71836;SDS011;59686;51.716;7.016;2023-04-25T19:01:17;3.28;;;1.65;;
71836;SDS011;59686;51.716;7.016;2023-04-25T19:03:44;3.25;;;1.30;;
71836;SDS011;59686;51.716;7.016;2023-04-25T19:06:18;4.35;;;1.52;;
71836;SDS011;59686;51.716;7.016;2023-04-25T19:08:47;4.68;;;1.70;;
71836;SDS011;59686;51.716;7.016;2023-04-25T19:11:14;2.95;;;1.55;;
71836;SDS011;59686;51.716;7.016;2023-04-25T19:13:40;5.30;;;1.42;;
71836;SDS011;59686;51.716;7.016;2023-04-25T19:16:06;4.68;;;1.60;;
71836;SDS011;59686;51.716;7.016;2023-04-25T19:18:33;4.05;;;1.23;;
71836;SDS011;59686;51.716;7.016;2023-04-25T19:20:58;5.70;;;1.65;;
71836;SDS011;59686;51.716;7.016;2023-04-25T19:23:25;4.22;;;1.85;;
71836;SDS011;59686;51.716;7.016;2023-04-25T19:25:51;2.92;;;1.42;;
71836;SDS011;59686;51.716;7.016;2023-04-25T19:28:17;4.65;;;1.70;;
71836;SDS011;59686;51.716;7.016;2023-04-25T19:30:45;3.28;;;1.52;;
71836;SDS011;59686;51.716;7.016;2023-04-25T19:33:11;4.28;;;1.60;;
71836;SDS011;59686;51.716;7.016;2023-04-25T19:38:08;7.57;;;1.88;;
71836;SDS011;59686;51.716;7.016;2023-04-25T19:40:33;5.07;;;1.52;;
71836;SDS011;59686;51.716;7.016;2023-04-25T19:43:00;3.35;;;1.50;;
71836;SDS011;59686;51.716;7.016;2023-04-25T19:45:25;5.65;;;1.55;;
71836;SDS011;59686;51.716;7.016;2023-04-25T19:47:59;4.50;;;1.40;;
71836;SDS011;59686;51.716;7.016;2023-04-25T19:50:25;3.15;;;1.40;;
71836;SDS011;59686;51.716;7.016;2023-04-25T19:52:52;3.10;;;1.42;;
71836;SDS011;59686;51.716;7.016;2023-04-25T19:55:26;3.47;;;1.40;;
71836;SDS011;59686;51.716;7.016;2023-04-25T19:57:52;3.13;;;1.42;;
71836;SDS011;59686;51.716;7.016;2023-04-25T20:00:18;5.40;;;1.70;;
71836;SDS011;59686;51.716;7.016;2023-04-25T20:02:59;3.80;;;1.48;;
71836;SDS011;59686;51.716;7.016;2023-04-25T20:05:25;2.45;;;1.50;;
71836;SDS011;59686;51.716;7.016;2023-04-25T20:08:00;4.15;;;2.10;;
71836;SDS011;59686;51.716;7.016;2023-04-25T20:10:26;3.90;;;1.52;;
71836;SDS011;59686;51.716;7.016;2023-04-25T20:12:51;2.92;;;1.33;;
71836;SDS011;59686;51.716;7.016;2023-04-25T20:15:26;5.00;;;1.60;;
71836;SDS011;59686;51.716;7.016;2023-04-25T20:17:52;3.67;;;1.60;;
71836;SDS011;59686;51.716;7.016;2023-04-25T20:20:19;3.70;;;1.45;;
71836;SDS011;59686;51.716;7.016;2023-04-25T20:22:46;4.68;;;1.58;;
71836;SDS011;59686;51.716;7.016;2023-04-25T20:25:13;4.57;;;1.40;;
71836;SDS011;59686;51.716;7.016;2023-04-25T20:27:39;2.95;;;1.48;;
71836;SDS011;59686;51.716;7.016;2023-04-25T20:30:12;3.63;;;1.35;;
71836;SDS011;59686;51.716;7.016;2023-04-25T20:32:39;4.28;;;1.38;;
71836;SDS011;59686;51.716;7.016;2023-04-25T20:35:06;3.65;;;1.73;;
71836;SDS011;59686;51.716;7.016;2023-04-25T20:37:36;1.80;;;1.27;;
71836;SDS011;59686;51.716;7.016;2023-04-25T20:40:07;3.17;;;1.50;;
71836;SDS011;59686;51.716;7.016;2023-04-25T20:42:33;2.45;;;1.25;;
71836;SDS011;59686;51.716;7.016;2023-04-25T20:45:00;4.15;;;1.40;;
71836;SDS011;59686;51.716;7.016;2023-04-25T20:47:39;1.33;;;1.10;;
71836;SDS011;59686;51.716;7.016;2023-04-25T20:50:05;4.82;;;1.60;;
71836;SDS011;59686;51.716;7.016;2023-04-25T20:52:31;3.97;;;1.70;;
71836;SDS011;59686;51.716;7.016;2023-04-25T20:55:05;2.42;;;1.40;;
71836;SDS011;59686;51.716;7.016;2023-04-25T20:57:32;4.97;;;1.70;;
71836;SDS011;59686;51.716;7.016;2023-04-25T20:59:57;4.05;;;1.70;;
71836;SDS011;59686;51.716;7.016;2023-04-25T21:02:23;4.45;;;1.58;;
71836;SDS011;59686;51.716;7.016;2023-04-25T21:04:49;4.80;;;2.05;;
71836;SDS011;59686;51.716;7.016;2023-04-25T21:07:15;3.75;;;1.70;;
71836;SDS011;59686;51.716;7.016;2023-04-25T21:09:41;4.97;;;1.38;;
71836;SDS011;59686;51.716;7.016;2023-04-25T21:12:09;5.18;;;1.60;;
71836;SDS011;59686;51.716;7.016;2023-04-25T21:14:35;5.00;;;1.40;;
71836;SDS011;59686;51.716;7.016;2023-04-25T21:17:01;3.50;;;1.50;;
71836;SDS011;59686;51.716;7.016;2023-04-25T21:19:28;2.58;;;1.50;;
71836;SDS011;59686;51.716;7.016;2023-04-25T21:21:54;3.15;;;1.30;;
71836;SDS011;59686;51.716;7.016;2023-04-25T21:24:20;2.22;;;1.42;;
71836;SDS011;59686;51.716;7.016;2023-04-25T21:26:46;3.10;;;1.50;;
71836;SDS011;59686;51.716;7.016;2023-04-25T21:29:11;4.93;;;2.00;;